Main page
METAR-TAF:

METAR-TAF

Airports :

Kolding Lufthavn

Kolding, Denmark

latitude: 55-26N, longitude: 009-20E, elevation: 44 m

Current weather observation

The report was made 38 minutes ago, at 17:50 UTC
Wind 2 kt from the South
Temperature 2°C
Humidity 87%
Pressure 997 hPa

METAR: EKVD 271750Z AUTO 19002KT //// ///////// 02/00 Q0997

Time: 19:28 (18:28 UTC)

Forecast

The report was made 6 hours and 35 minutes ago, at 11:53 UTC
Forecast valid from 27 at 12 UTC to 27 at 17 UTC
Wind 8 kt from the Southwest
Visibility 10 km or more
Broken clouds at a height of 2500 ft
Temporary
from 27 at 12 UTC to 27 at 17 UTC
Visibility: 4000 m
Broken clouds at a height of 1200 ft
Scattered clouds at a height of 2000 ft, Cumulonimbus.
rain showers, snow

TAF: EKVD 271153Z 2712/2717 22008KT 9999 BKN025 TEMPO 2712/2717 4000 SHRASN BKN012 SCT020CB

Weather observations and forecasts of more than 4000 airports (METAR and TAF reports).

The available stations are represented by yellow and red dots on the map.

Hover mouse over dot to see the name of the station.

Then click to see weather observations and forecasts.

To change the map : click on the green buttons with a black cross to zoom in, on the green button with a dash to zoom out, or on the green arrows for adjacent maps.


METAR-TAF: